Grand Marais-Cook County, MN

1:07 PM CDT on June 23, 2017 (GMT -0500)
Grand Marais Airport | | Change Station

Elev 1798 ft 47.84 °N, 90.38 °W | Updated 14 minutes ago

Mostly Cloudy
Mostly Cloudy
63 °F
Feels Like 63 °F
N
8
Wind Variable Wind from WNW
Gusts 20 mph

Today
High -- | Low -- °F
--% Chance of Precip.
Yesterday
High -- | Low -- °F
Precip. -- in
Pressure 29.64 in
Visibility 10.0 miles
Clouds Scattered Clouds 2900 ft
Scattered Clouds 6500 ft
Dew Point 48 °F
Humidity 59%
Rainfall 0.00 in
Snow Depth Not available.
5:03 AM 9:04 PM
Waning Crescent, 0% visible
METAR KCKC 231753Z AUTO 29007G17KT 259V339 10SM SCT029 SCT065 17/09 A2964 RMK AO2
Pressure 29.64 in
Visibility 10.0 miles
Clouds Scattered Clouds 2900 ft
Scattered Clouds 6500 ft
Dew Point 48 °F
Humidity 59%
Rainfall 0.00 in
Snow Depth Not available.
5:03 AM 9:04 PM
Waning Crescent, 0% visible
METAR KCKC 231753Z AUTO 29007G17KT 259V339 10SM SCT029 SCT065 17/09 A2964 RMK AO2

Get Severe Weather Alerts

Thanks for signing up!

Be on the lookout for a verification email in your inbox.

You'll start receiving the daily forecast at 6 AM.

×

10-Day Weather Forecast

Almanac

Astronomy

Jun. 23, 2017 Rise Set
Actual Time
Civil Twilight
Nautical Twilight
Astronomical Twilight
Moon
Length of Visible Light
Length of Day
Tomorrow will be .
, % of the Moon is Illuminated

Today's Extremes

State Highs State Lows

Community

WunderPhotos

Category 6

Welcome to Category 6. This is the collective home for Weather Underground's featured writeups by Dr. Jeff Masters (right), Bob Henson (left), Chris Burt, and other regular contributors.

Nearby

Air Quality

  Air Quality AQ Index Pollutant
Not available.

Snow Depth

Station Depth Elevation

Earthquake Activity

City Distance Mag. Time & Date
Minimum magnitude displayed is 2.5.

Coastal Water Temperatures

Place Temperature

Stations

Nearby Weather Stations

Station Location Temp. Windchill Dew Point Humidity Wind Precip. Elev Updated Type
                   

Watches & Warnings

There are currently no watches in effect.